PWSweather.com
Personal Weather Stations
Station Observations

LlefiĆ BadalonaES

Lat: 41.44, Lon: 2.2175

Elevation: 213.254

Station Type: oregon WMR918

http://www.estacionmeteorologicabadalonallefia.com

Latest ConditionsUpdated 5:38:46 PM GMT+01:01 Tuesday, Sep 2, 2014
Currently Today's Max Today's Min Today's Average
Temperature 75.7°F24.3°C 76.5°F24.7°C 69.1°F20.6°C 73.1°F22.8°C
Dew Point 71.9°F22.2°C 72.2°F22.3°C 65.7°F18.7°C 68.8°F20.4°C
Winds 5.2 mph SE8.4 kmh SE 9.5 mph SE15.3 kmh SE - 4.2 mph 6.8 kmh
Wind Gusts 8.1 mph13.0 kmh 15.4 mph24.8 kmh - -
Humidity 88% 93% 71% 87%
Pressure 29.88 in1011.9 mb 29.94 in1013.9 mb 29.86 in1011.2 mb -
Hour Temp Dew Point Humidity Winds Wind Gusts Pressure Precip Precip Rate Daily Precip Total
05:38 PM 75.7°F24.3°C 71.9°F22.2°C 88% 5.2 mph SE8.4 kmh SE 8.1 mph13.0 kmh 29.88 in1011.9 mb 0.00 in0.0 mm 0.00 in/hr0.0 mm/hr 0.00 in0.0 mm
05:28 PM 76.0°F24.4°C 72.2°F22.3°C 88% 2.9 mph E4.7 kmh E 4.6 mph7.4 kmh 29.88 in1011.9 mb 0.00 in0.0 mm 0.00 in/hr0.0 mm/hr 0.00 in0.0 mm
05:19 PM 75.9°F24.4°C 71.8°F22.1°C 87% 3.3 mph E5.3 kmh E 10.7 mph17.2 kmh 29.86 in1011.2 mb 0.00 in0.0 mm 0.00 in/hr0.0 mm/hr 0.00 in0.0 mm
05:08 PM 75.6°F24.2°C 71.1°F21.7°C 86% 6.1 mph ESE9.8 kmh ESE 10.5 mph16.9 kmh 29.86 in1011.2 mb 0.00 in0.0 mm 0.00 in/hr0.0 mm/hr 0.00 in0.0 mm
04:58 PM 75.9°F24.4°C 71.4°F21.9°C 86% 6.0 mph E9.7 kmh E 9.9 mph15.9 kmh 29.88 in1011.9 mb 0.00 in0.0 mm 0.00 in/hr0.0 mm/hr 0.00 in0.0 mm
04:48 PM 75.9°F24.4°C 71.4°F21.9°C 86% 5.4 mph SE8.7 kmh SE 11.3 mph18.2 kmh 29.88 in1011.9 mb 0.00 in0.0 mm 0.00 in/hr0.0 mm/hr 0.00 in0.0 mm
04:38 PM 76.1°F24.5°C 71.6°F22.0°C 86% 3.7 mph ESE6.0 kmh ESE 7.6 mph12.2 kmh 29.88 in1011.9 mb 0.00 in0.0 mm 0.00 in/hr0.0 mm/hr 0.00 in0.0 mm
04:28 PM 76.1°F24.5°C 71.6°F22.0°C 86% 6.1 mph SE9.8 kmh SE 9.9 mph15.9 kmh 29.88 in1011.9 mb 0.00 in0.0 mm 0.00 in/hr0.0 mm/hr 0.00 in0.0 mm
04:19 PM 75.8°F24.3°C 71.0°F21.7°C 85% 7.8 mph SE12.6 kmh SE 11.3 mph18.2 kmh 29.86 in1011.2 mb 0.00 in0.0 mm 0.00 in/hr0.0 mm/hr 0.00 in0.0 mm
04:08 PM 76.1°F24.5°C 70.9°F21.6°C 84% 5.6 mph S9.0 kmh S 10.7 mph17.2 kmh 29.86 in1011.2 mb 0.00 in0.0 mm 0.00 in/hr0.0 mm/hr 0.00 in0.0 mm
03:58 PM 75.7°F24.3°C 70.2°F21.2°C 83% 7.6 mph ESE12.2 kmh ESE 10.5 mph16.9 kmh 29.88 in1011.9 mb 0.00 in0.0 mm 0.00 in/hr0.0 mm/hr 0.00 in0.0 mm
03:48 PM 76.1°F24.5°C 70.5°F21.4°C 83% 8.1 mph SE13.0 kmh SE 10.7 mph17.2 kmh 29.86 in1011.2 mb 0.00 in0.0 mm 0.00 in/hr0.0 mm/hr 0.00 in0.0 mm
03:38 PM 76.3°F24.6°C 70.8°F21.6°C 83% 7.3 mph SE11.7 kmh SE 9.9 mph15.9 kmh 29.86 in1011.2 mb 0.00 in0.0 mm 0.00 in/hr0.0 mm/hr 0.00 in0.0 mm
03:28 PM 76.1°F24.5°C 70.6°F21.4°C 83% 5.7 mph SSE9.2 kmh SSE 11.3 mph18.2 kmh 29.88 in1011.9 mb 0.00 in0.0 mm 0.00 in/hr0.0 mm/hr 0.00 in0.0 mm
03:19 PM 76.3°F24.6°C 70.7°F21.5°C 83% 5.0 mph SE8.0 kmh SE 13.1 mph21.1 kmh 29.88 in1011.9 mb 0.00 in0.0 mm 0.00 in/hr0.0 mm/hr 0.00 in0.0 mm
03:08 PM 76.0°F24.4°C 70.4°F21.3°C 83% 8.4 mph SSE13.5 kmh SSE 13.1 mph21.1 kmh 29.88 in1011.9 mb 0.00 in0.0 mm 0.00 in/hr0.0 mm/hr 0.00 in0.0 mm
02:58 PM 75.9°F24.4°C 70.0°F21.1°C 82% 6.4 mph SSE10.3 kmh SSE 11.3 mph18.2 kmh 29.88 in1011.9 mb 0.00 in0.0 mm 0.00 in/hr0.0 mm/hr 0.00 in0.0 mm
02:48 PM 76.1°F24.5°C 69.9°F21.1°C 81% 6.9 mph SE11.1 kmh SE 8.1 mph13.0 kmh 29.88 in1011.9 mb 0.00 in0.0 mm 0.00 in/hr0.0 mm/hr 0.00 in0.0 mm
02:38 PM 75.9°F24.4°C 69.7°F20.9°C 81% 9.0 mph SE14.5 kmh SE 10.5 mph16.9 kmh 29.88 in1011.9 mb 0.00 in0.0 mm 0.00 in/hr0.0 mm/hr 0.00 in0.0 mm
02:28 PM 76.3°F24.6°C 70.4°F21.3°C 82% 7.4 mph SE11.9 kmh SE 12.5 mph20.1 kmh 29.88 in1011.9 mb 0.00 in0.0 mm 0.00 in/hr0.0 mm/hr 0.00 in0.0 mm
02:19 PM 76.1°F24.5°C 69.4°F20.8°C 80% 9.5 mph SE15.3 kmh SE 15.4 mph24.8 kmh 29.88 in1011.9 mb 0.00 in0.0 mm 0.00 in/hr0.0 mm/hr 0.00 in0.0 mm
02:08 PM 75.9°F24.4°C 70.0°F21.1°C 82% 5.1 mph SE8.2 kmh SE 10.7 mph17.2 kmh 29.88 in1011.9 mb 0.00 in0.0 mm 0.00 in/hr0.0 mm/hr 0.00 in0.0 mm
01:58 PM 76.0°F24.4°C 69.4°F20.8°C 80% 6.9 mph SE11.1 kmh SE 9.9 mph15.9 kmh 29.88 in1011.9 mb 0.00 in0.0 mm 0.00 in/hr0.0 mm/hr 0.00 in0.0 mm
01:48 PM 76.5°F24.7°C 69.9°F21.1°C 80% 5.5 mph SSE8.9 kmh SSE 10.7 mph17.2 kmh 29.91 in1012.9 mb 0.00 in0.0 mm 0.00 in/hr0.0 mm/hr 0.00 in0.0 mm
01:38 PM 76.0°F24.4°C 69.0°F20.6°C 79% 6.8 mph SE10.9 kmh SE 11.3 mph18.2 kmh 29.91 in1012.9 mb 0.00 in0.0 mm 0.00 in/hr0.0 mm/hr 0.00 in0.0 mm
01:28 PM 76.1°F24.5°C 69.8°F21.0°C 81% 3.6 mph SE5.8 kmh SE 9.9 mph15.9 kmh 29.91 in1012.9 mb 0.00 in0.0 mm 0.00 in/hr0.0 mm/hr 0.00 in0.0 mm
01:19 PM 75.9°F24.4°C 69.7°F20.9°C 81% 6.1 mph ESE9.8 kmh ESE 10.7 mph17.2 kmh 29.91 in1012.9 mb 0.00 in0.0 mm 0.00 in/hr0.0 mm/hr 0.00 in0.0 mm
01:08 PM 75.2°F24.0°C 69.0°F20.6°C 81% 8.4 mph ESE13.5 kmh ESE 13.1 mph21.1 kmh 29.91 in1012.9 mb 0.00 in0.0 mm 0.00 in/hr0.0 mm/hr 0.00 in0.0 mm
12:58 PM 75.9°F24.4°C 69.3°F20.7°C 80% 7.5 mph SE12.1 kmh SE 13.1 mph21.1 kmh 29.91 in1012.9 mb 0.00 in0.0 mm 0.00 in/hr0.0 mm/hr 0.00 in0.0 mm
12:48 PM 76.1°F24.5°C 69.8°F21.0°C 81% 4.5 mph SE7.2 kmh SE 7.6 mph12.2 kmh 29.91 in1012.9 mb 0.00 in0.0 mm 0.00 in/hr0.0 mm/hr 0.00 in0.0 mm
12:38 PM 75.7°F24.3°C 68.4°F20.2°C 78% 7.5 mph SE12.1 kmh SE 12.5 mph20.1 kmh 29.91 in1012.9 mb 0.00 in0.0 mm 0.00 in/hr0.0 mm/hr 0.00 in0.0 mm
12:28 PM 76.1°F24.5°C 68.4°F20.2°C 77% 5.2 mph SE8.4 kmh SE 7.6 mph12.2 kmh 29.91 in1012.9 mb 0.00 in0.0 mm 0.00 in/hr0.0 mm/hr 0.00 in0.0 mm
12:19 PM 75.7°F24.3°C 66.9°F19.4°C 74% 5.4 mph SE8.7 kmh SE 8.1 mph13.0 kmh 29.91 in1012.9 mb 0.00 in0.0 mm 0.00 in/hr0.0 mm/hr 0.00 in0.0 mm
12:08 PM 75.7°F24.3°C 66.9°F19.4°C 74% 4.3 mph SSE6.9 kmh SSE 8.1 mph13.0 kmh 29.91 in1012.9 mb 0.00 in0.0 mm 0.00 in/hr0.0 mm/hr 0.00 in0.0 mm
11:58 AM 75.9°F24.4°C 65.8°F18.8°C 71% 2.9 mph ESE4.7 kmh ESE 8.7 mph14.0 kmh 29.91 in1012.9 mb 0.00 in0.0 mm 0.00 in/hr0.0 mm/hr 0.00 in0.0 mm
11:48 AM 75.2°F24.0°C 65.9°F18.8°C 73% 6.1 mph SSE9.8 kmh SSE 8.1 mph13.0 kmh 29.91 in1012.9 mb 0.00 in0.0 mm 0.00 in/hr0.0 mm/hr 0.00 in0.0 mm
11:38 AM 74.8°F23.8°C 66.0°F18.9°C 74% 6.6 mph SSE10.6 kmh SSE 8.1 mph13.0 kmh 29.91 in1012.9 mb 0.00 in0.0 mm 0.00 in/hr0.0 mm/hr 0.00 in0.0 mm
11:28 AM 74.1°F23.4°C 65.7°F18.7°C 75% 5.3 mph E8.5 kmh E 8.1 mph13.0 kmh 29.91 in1012.9 mb 0.00 in0.0 mm 0.00 in/hr0.0 mm/hr 0.00 in0.0 mm
11:19 AM 74.3°F23.5°C 69.1°F20.6°C 84% 3.9 mph E6.3 kmh E 7.0 mph11.3 kmh 29.94 in1013.9 mb 0.00 in0.0 mm 0.00 in/hr0.0 mm/hr 0.00 in0.0 mm
11:08 AM 74.1°F23.4°C 69.7°F20.9°C 86% 3.9 mph ENE6.3 kmh ENE 6.4 mph10.3 kmh 29.94 in1013.9 mb 0.00 in0.0 mm 0.00 in/hr0.0 mm/hr 0.00 in0.0 mm
10:58 AM 74.3°F23.5°C 70.5°F21.4°C 88% 4.0 mph ENE6.4 kmh ENE 7.0 mph11.3 kmh 29.91 in1012.9 mb 0.00 in0.0 mm 0.00 in/hr0.0 mm/hr 0.00 in0.0 mm
10:48 AM 74.3°F23.5°C 70.5°F21.4°C 88% 2.2 mph NE3.5 kmh NE 4.1 mph6.6 kmh 29.91 in1012.9 mb 0.00 in0.0 mm 0.00 in/hr0.0 mm/hr 0.00 in0.0 mm
10:38 AM 74.3°F23.5°C 70.5°F21.4°C 88% 3.1 mph ESE5.0 kmh ESE 8.1 mph13.0 kmh 29.91 in1012.9 mb 0.00 in0.0 mm 0.00 in/hr0.0 mm/hr 0.00 in0.0 mm
10:28 AM 74.3°F23.5°C 70.5°F21.4°C 88% 3.2 mph SE5.1 kmh SE 5.2 mph8.4 kmh 29.94 in1013.9 mb 0.00 in0.0 mm 0.00 in/hr0.0 mm/hr 0.00 in0.0 mm
10:19 AM 74.3°F23.5°C 70.5°F21.4°C 88% 3.5 mph E5.6 kmh E 5.2 mph8.4 kmh 29.94 in1013.9 mb 0.00 in0.0 mm 0.00 in/hr0.0 mm/hr 0.00 in0.0 mm
10:08 AM 74.4°F23.6°C 70.6°F21.4°C 88% 4.0 mph ESE6.4 kmh ESE 7.0 mph11.3 kmh 29.94 in1013.9 mb 0.00 in0.0 mm 0.00 in/hr0.0 mm/hr 0.00 in0.0 mm
09:58 AM 74.1°F23.4°C 70.3°F21.3°C 88% 2.6 mph E4.2 kmh E 4.1 mph6.6 kmh 29.94 in1013.9 mb 0.00 in0.0 mm 0.00 in/hr0.0 mm/hr 0.00 in0.0 mm
09:48 AM 74.1°F23.4°C 70.3°F21.3°C 88% 1.5 mph E2.4 kmh E 2.9 mph4.7 kmh 29.94 in1013.9 mb 0.00 in0.0 mm 0.00 in/hr0.0 mm/hr 0.00 in0.0 mm
09:38 AM 74.1°F23.4°C 70.3°F21.3°C 88% Calm Calm 3.5 mph5.6 kmh 29.94 in1013.9 mb 0.00 in0.0 mm 0.00 in/hr0.0 mm/hr 0.00 in0.0 mm
09:28 AM 73.8°F23.2°C 70.0°F21.1°C 88% 0.9 mph NE1.4 kmh NE 6.4 mph10.3 kmh 29.94 in1013.9 mb 0.00 in0.0 mm 0.00 in/hr0.0 mm/hr 0.00 in0.0 mm
09:19 AM 72.9°F22.7°C 69.1°F20.6°C 88% Calm Calm 4.1 mph6.6 kmh 29.92 in1013.2 mb 0.00 in0.0 mm 0.00 in/hr0.0 mm/hr 0.00 in0.0 mm
09:08 AM 72.5°F22.5°C 68.7°F20.4°C 88% 3.1 mph NW5.0 kmh NW 5.2 mph8.4 kmh 29.91 in1012.9 mb 0.00 in0.0 mm 0.00 in/hr0.0 mm/hr 0.00 in0.0 mm
08:58 AM 72.5°F22.5°C 69.1°F20.6°C 89% 3.5 mph NW5.6 kmh NW 7.6 mph12.2 kmh 29.94 in1013.9 mb 0.00 in0.0 mm 0.00 in/hr0.0 mm/hr 0.00 in0.0 mm
08:48 AM 72.3°F22.4°C 68.9°F20.5°C 89% 2.9 mph NW4.7 kmh NW 4.1 mph6.6 kmh 29.91 in1012.9 mb 0.00 in0.0 mm 0.00 in/hr0.0 mm/hr 0.00 in0.0 mm
08:38 AM 72.0°F22.2°C 68.5°F20.3°C 89% 3.9 mph NW6.3 kmh NW 5.2 mph8.4 kmh 29.91 in1012.9 mb 0.00 in0.0 mm 0.00 in/hr0.0 mm/hr 0.00 in0.0 mm
08:28 AM 71.8°F22.1°C 68.7°F20.4°C 90% 5.2 mph NW8.4 kmh NW 7.6 mph12.2 kmh 29.91 in1012.9 mb 0.00 in0.0 mm 0.00 in/hr0.0 mm/hr 0.00 in0.0 mm
08:19 AM 71.8°F22.1°C 68.7°F20.4°C 90% 4.1 mph NW6.6 kmh NW 7.0 mph11.3 kmh 29.91 in1012.9 mb 0.00 in0.0 mm 0.00 in/hr0.0 mm/hr 0.00 in0.0 mm
08:08 AM 71.8°F22.1°C 69.0°F20.6°C 91% Calm Calm 3.5 mph5.6 kmh 29.91 in1012.9 mb 0.00 in0.0 mm 0.00 in/hr0.0 mm/hr 0.00 in0.0 mm
07:58 AM 71.6°F22.0°C 68.8°F20.4°C 91% 2.5 mph NNW4.0 kmh NNW 4.6 mph7.4 kmh 29.91 in1012.9 mb 0.00 in0.0 mm 0.00 in/hr0.0 mm/hr 0.00 in0.0 mm
07:48 AM 71.8°F22.1°C 69.3°F20.7°C 92% Calm Calm -- 29.91 in1012.9 mb 0.00 in0.0 mm 0.00 in/hr0.0 mm/hr 0.00 in0.0 mm
07:38 AM 71.2°F21.8°C 68.8°F20.4°C 92% Calm Calm -- 29.91 in1012.9 mb 0.00 in0.0 mm 0.00 in/hr0.0 mm/hr 0.00 in0.0 mm
07:28 AM 71.4°F21.9°C 69.2°F20.7°C 93% 0.7 mph NW1.1 kmh NW 4.6 mph7.4 kmh 29.91 in1012.9 mb 0.00 in0.0 mm 0.00 in/hr0.0 mm/hr 0.00 in0.0 mm
07:19 AM 71.1°F21.7°C 68.9°F20.5°C 93% Calm Calm 3.5 mph5.6 kmh 29.91 in1012.9 mb 0.00 in0.0 mm 0.00 in/hr0.0 mm/hr 0.00 in0.0 mm
07:08 AM 70.5°F21.4°C 68.4°F20.2°C 93% 0.9 mph N1.4 kmh N 3.5 mph5.6 kmh 29.91 in1012.9 mb 0.00 in0.0 mm 0.00 in/hr0.0 mm/hr 0.00 in0.0 mm
06:58 AM 70.0°F21.1°C 67.9°F19.9°C 93% Calm Calm 3.5 mph5.6 kmh 29.91 in1012.9 mb 0.00 in0.0 mm 0.00 in/hr0.0 mm/hr 0.00 in0.0 mm
06:48 AM 69.8°F21.0°C 67.7°F19.8°C 93% 3.0 mph NW4.8 kmh NW 4.6 mph7.4 kmh 29.91 in1012.9 mb 0.00 in0.0 mm 0.00 in/hr0.0 mm/hr 0.00 in0.0 mm
06:38 AM 69.6°F20.9°C 67.5°F19.7°C 93% 4.0 mph NW6.4 kmh NW 5.2 mph8.4 kmh 29.91 in1012.9 mb 0.00 in0.0 mm 0.00 in/hr0.0 mm/hr 0.00 in0.0 mm
06:28 AM 69.4°F20.8°C 67.3°F19.6°C 93% 4.0 mph NW6.4 kmh NW 7.6 mph12.2 kmh 29.91 in1012.9 mb 0.00 in0.0 mm 0.00 in/hr0.0 mm/hr 0.00 in0.0 mm
06:19 AM 69.3°F20.7°C 67.1°F19.5°C 93% 3.8 mph NW6.1 kmh NW 5.2 mph8.4 kmh 29.91 in1012.9 mb 0.00 in0.0 mm 0.00 in/hr0.0 mm/hr 0.00 in0.0 mm
06:08 AM 69.3°F20.7°C 67.1°F19.5°C 93% 3.7 mph NW6.0 kmh NW 7.0 mph11.3 kmh 29.91 in1012.9 mb 0.00 in0.0 mm 0.00 in/hr0.0 mm/hr 0.00 in0.0 mm
05:58 AM 69.1°F20.6°C 67.0°F19.4°C 93% 4.0 mph NW6.4 kmh NW 7.6 mph12.2 kmh 29.91 in1012.9 mb 0.00 in0.0 mm 0.00 in/hr0.0 mm/hr 0.00 in0.0 mm
05:48 AM 69.1°F20.6°C 66.7°F19.3°C 92% 4.3 mph NW6.9 kmh NW 7.0 mph11.3 kmh 29.91 in1012.9 mb 0.00 in0.0 mm 0.00 in/hr0.0 mm/hr 0.00 in0.0 mm
05:38 AM 69.1°F20.6°C 66.7°F19.3°C 92% 6.3 mph NW10.1 kmh NW 8.1 mph13.0 kmh 29.91 in1012.9 mb 0.00 in0.0 mm 0.00 in/hr0.0 mm/hr 0.00 in0.0 mm
05:28 AM 69.3°F20.7°C 66.8°F19.3°C 92% 4.5 mph NW7.2 kmh NW 9.9 mph15.9 kmh 29.91 in1012.9 mb 0.00 in0.0 mm 0.00 in/hr0.0 mm/hr 0.00 in0.0 mm
05:19 AM 69.4°F20.8°C 66.7°F19.3°C 91% 5.7 mph NW9.2 kmh NW 7.6 mph12.2 kmh 29.91 in1012.9 mb 0.00 in0.0 mm 0.00 in/hr0.0 mm/hr 0.00 in0.0 mm
05:08 AM 69.4°F20.8°C 66.7°F19.3°C 91% 4.4 mph NW7.1 kmh NW 8.7 mph14.0 kmh 29.91 in1012.9 mb 0.00 in0.0 mm 0.00 in/hr0.0 mm/hr 0.00 in0.0 mm
04:58 AM 69.6°F20.9°C 66.9°F19.4°C 91% 4.1 mph NW6.6 kmh NW 7.0 mph11.3 kmh 29.91 in1012.9 mb 0.00 in0.0 mm 0.00 in/hr0.0 mm/hr 0.00 in0.0 mm
04:48 AM 69.6°F20.9°C 66.9°F19.4°C 91% 4.1 mph WNW6.6 kmh WNW 8.1 mph13.0 kmh 29.91 in1012.9 mb 0.00 in0.0 mm 0.00 in/hr0.0 mm/hr 0.00 in0.0 mm
04:38 AM 69.8°F21.0°C 66.7°F19.3°C 90% 4.8 mph NW7.7 kmh NW 8.1 mph13.0 kmh 29.91 in1012.9 mb 0.00 in0.0 mm 0.00 in/hr0.0 mm/hr 0.00 in0.0 mm
04:28 AM 70.0°F21.1°C 66.9°F19.4°C 90% 4.2 mph NW6.8 kmh NW 7.6 mph12.2 kmh 29.91 in1012.9 mb 0.00 in0.0 mm 0.00 in/hr0.0 mm/hr 0.00 in0.0 mm
04:19 AM 70.2°F21.2°C 67.1°F19.5°C 90% 4.9 mph NW7.9 kmh NW 7.6 mph12.2 kmh 29.91 in1012.9 mb 0.00 in0.0 mm 0.00 in/hr0.0 mm/hr 0.00 in0.0 mm
04:08 AM 70.4°F21.3°C 67.3°F19.6°C 90% 4.0 mph NW6.4 kmh NW 7.0 mph11.3 kmh 29.91 in1012.9 mb 0.00 in0.0 mm 0.00 in/hr0.0 mm/hr 0.00 in0.0 mm
03:58 AM 70.7°F21.5°C 67.6°F19.8°C 90% 4.3 mph NW6.9 kmh NW 7.0 mph11.3 kmh 29.91 in1012.9 mb 0.00 in0.0 mm 0.00 in/hr0.0 mm/hr 0.00 in0.0 mm
03:48 AM 70.9°F21.6°C 67.8°F19.9°C 90% 2.3 mph NW3.7 kmh NW 4.1 mph6.6 kmh 29.91 in1012.9 mb 0.00 in0.0 mm 0.00 in/hr0.0 mm/hr 0.00 in0.0 mm
03:38 AM 70.5°F21.4°C 67.4°F19.7°C 90% Calm Calm 4.1 mph6.6 kmh 29.91 in1012.9 mb 0.00 in0.0 mm 0.00 in/hr0.0 mm/hr 0.00 in0.0 mm
03:28 AM 70.5°F21.4°C 67.4°F19.7°C 90% 4.3 mph NW6.9 kmh NW 6.4 mph10.3 kmh 29.91 in1012.9 mb 0.00 in0.0 mm 0.00 in/hr0.0 mm/hr 0.00 in0.0 mm
03:19 AM 70.6°F21.4°C 67.5°F19.7°C 90% 4.5 mph NW7.2 kmh NW 7.6 mph12.2 kmh 29.91 in1012.9 mb 0.00 in0.0 mm 0.00 in/hr0.0 mm/hr 0.00 in0.0 mm
03:08 AM 71.0°F21.7°C 67.9°F19.9°C 90% 2.1 mph W3.4 kmh W 2.9 mph4.7 kmh 29.91 in1012.9 mb 0.00 in0.0 mm 0.00 in/hr0.0 mm/hr 0.00 in0.0 mm
02:58 AM 71.1°F21.7°C 68.0°F20.0°C 90% 3.7 mph NW6.0 kmh NW 4.6 mph7.4 kmh 29.91 in1012.9 mb 0.00 in0.0 mm 0.00 in/hr0.0 mm/hr 0.00 in0.0 mm
02:48 AM 71.1°F21.7°C 68.0°F20.0°C 90% 2.9 mph NW4.7 kmh NW 6.4 mph10.3 kmh 29.91 in1012.9 mb 0.00 in0.0 mm 0.00 in/hr0.0 mm/hr 0.00 in0.0 mm
02:38 AM 71.1°F21.7°C 67.7°F19.8°C 89% 3.2 mph NW5.1 kmh NW 5.2 mph8.4 kmh 29.91 in1012.9 mb 0.00 in0.0 mm 0.00 in/hr0.0 mm/hr 0.00 in0.0 mm
02:28 AM 71.2°F21.8°C 67.8°F19.9°C 89% 3.2 mph NW5.1 kmh NW 6.4 mph10.3 kmh 29.91 in1012.9 mb 0.00 in0.0 mm 0.00 in/hr0.0 mm/hr 0.00 in0.0 mm
02:19 AM 71.2°F21.8°C 67.8°F19.9°C 89% 4.3 mph NW6.9 kmh NW 7.6 mph12.2 kmh 29.91 in1012.9 mb 0.00 in0.0 mm 0.00 in/hr0.0 mm/hr 0.00 in0.0 mm
02:08 AM 71.4°F21.9°C 68.0°F20.0°C 89% 4.4 mph NW7.1 kmh NW 7.0 mph11.3 kmh 29.91 in1012.9 mb 0.00 in0.0 mm 0.00 in/hr0.0 mm/hr 0.00 in0.0 mm
01:58 AM 71.4°F21.9°C 68.0°F20.0°C 89% 3.7 mph NW6.0 kmh NW 7.6 mph12.2 kmh 29.91 in1012.9 mb 0.00 in0.0 mm 0.00 in/hr0.0 mm/hr 0.00 in0.0 mm
01:48 AM 71.4°F21.9°C 67.7°F19.8°C 88% 5.3 mph NW8.5 kmh NW 7.6 mph12.2 kmh 29.94 in1013.9 mb 0.00 in0.0 mm 0.00 in/hr0.0 mm/hr 0.00 in0.0 mm
01:38 AM 71.6°F22.0°C 67.9°F19.9°C 88% 3.7 mph NW6.0 kmh NW 7.6 mph12.2 kmh 29.94 in1013.9 mb 0.00 in0.0 mm 0.00 in/hr0.0 mm/hr 0.00 in0.0 mm
01:28 AM 71.8°F22.1°C 68.0°F20.0°C 88% 2.4 mph NW3.9 kmh NW 3.5 mph5.6 kmh 29.94 in1013.9 mb 0.00 in0.0 mm 0.00 in/hr0.0 mm/hr 0.00 in0.0 mm
01:19 AM 71.8°F22.1°C 67.7°F19.8°C 87% 3.4 mph NW5.5 kmh NW 7.0 mph11.3 kmh 29.94 in1013.9 mb 0.00 in0.0 mm 0.00 in/hr0.0 mm/hr 0.00 in0.0 mm
01:08 AM 72.0°F22.2°C 67.9°F19.9°C 87% 4.3 mph NW6.9 kmh NW 7.6 mph12.2 kmh 29.94 in1013.9 mb 0.00 in0.0 mm 0.00 in/hr0.0 mm/hr 0.00 in0.0 mm
12:58 AM 72.1°F22.3°C 67.7°F19.8°C 86% 3.6 mph NW5.8 kmh NW 7.0 mph11.3 kmh 29.94 in1013.9 mb 0.00 in0.0 mm 0.00 in/hr0.0 mm/hr 0.00 in0.0 mm
12:48 AM 72.3°F22.4°C 67.9°F19.9°C 86% 4.9 mph NW7.9 kmh NW 7.6 mph12.2 kmh 29.94 in1013.9 mb 0.00 in0.0 mm 0.00 in/hr0.0 mm/hr 0.00 in0.0 mm
12:38 AM 72.7°F22.6°C 67.9°F19.9°C 85% 3.6 mph NW5.8 kmh NW 6.4 mph10.3 kmh 29.94 in1013.9 mb 0.00 in0.0 mm 0.00 in/hr0.0 mm/hr 0.00 in0.0 mm
12:28 AM 73.0°F22.8°C 68.3°F20.2°C 85% 3.2 mph NW5.1 kmh NW 7.6 mph12.2 kmh 29.94 in1013.9 mb 0.00 in0.0 mm 0.00 in/hr0.0 mm/hr 0.00 in0.0 mm
12:18 AM 73.4°F23.0°C 68.6°F20.3°C 85% 3.9 mph NW6.3 kmh NW 6.4 mph10.3 kmh 29.94 in1013.9 mb 0.00 in0.0 mm 0.00 in/hr0.0 mm/hr 0.00 in0.0 mm
12:08 AM 73.4°F23.0°C 68.6°F20.3°C 85% 2.9 mph NW4.7 kmh NW 5.2 mph8.4 kmh 29.94 in1013.9 mb 0.00 in0.0 mm 0.00 in/hr0.0 mm/hr 0.00 in0.0 mm